Time;durP1;ratioP1;P1;durP2;ratioP2;P2;SDS_P1;SDS_P2;PMS_P1;PMS_P2;Temp;Humidity;BMP_temperature;BMP_pressure;BME280_temperature;BME280_humidity;BME280_pressure;Samples;Min_cycle;Max_cycle;Signal;HPM_P1;HPM_P2
2022/01/21 00:01:03;;;;;;;6.75;2.22;;;-0.70;99.90;;;;;;5028258;28;20382;-85
2022/01/21 00:03:29;;;;;;;7.15;2.50;;;-0.70;99.90;;;;;;5026926;28;20895;-89
2022/01/21 00:05:55;;;;;;;7.43;2.35;;;-0.60;99.90;;;;;;5027639;28;20402;-84
2022/01/21 00:08:20;;;;;;;6.72;2.22;;;-0.60;99.90;;;;;;5027442;28;20409;-82
2022/01/21 00:10:46;;;;;;;5.68;2.30;;;-0.70;99.90;;;;;;5025831;28;20382;-86
2022/01/21 00:13:33;;;;;;;6.38;2.10;;;-0.60;99.90;;;;;;5026004;28;20393;-84
2022/01/21 00:16:21;;;;;;;8.02;2.38;;;-0.70;99.90;;;;;;5025655;28;20397;-84
2022/01/21 00:19:01;;;;;;;6.93;2.50;;;-0.60;99.90;;;;;;5027287;28;20879;-86
2022/01/21 00:32:49;;;;;;;7.28;2.53;;;-0.60;99.90;;;;;;4974274;28;20395;-89
2022/01/21 00:35:17;;;;;;;6.07;2.10;;;-0.60;99.90;;;;;;5006087;28;20376;-86
2022/01/21 00:37:43;;;;;;;5.82;2.25;;;-0.60;99.90;;;;;;5019978;28;20896;-84
2022/01/21 00:40:13;;;;;;;5.77;2.37;;;-0.70;99.90;;;;;;5013327;28;20381;-85
2022/01/21 00:45:11;;;;;;;8.90;2.43;;;-0.70;99.90;;;;;;5026594;28;20519;-83
2022/01/21 00:47:36;;;;;;;7.40;2.42;;;-0.60;99.90;;;;;;5025770;28;20386;-84
2022/01/21 00:50:03;;;;;;;7.63;2.30;;;-0.60;99.90;;;;;;5026518;28;20392;-84
2022/01/21 00:52:28;;;;;;;7.40;2.30;;;-0.70;99.90;;;;;;5025331;28;20401;-84
2022/01/21 00:54:54;;;;;;;9.43;2.23;;;-0.80;99.90;;;;;;5029370;28;20389;-84
2022/01/21 00:57:20;;;;;;;9.07;2.60;;;-0.80;99.90;;;;;;5027775;28;20382;-86
2022/01/21 00:59:45;;;;;;;5.43;2.05;;;-0.90;99.90;;;;;;5025318;28;20378;-83
2022/01/21 01:02:11;;;;;;;8.57;2.70;;;-1.00;99.90;;;;;;5025350;28;20382;-86
2022/01/21 01:04:38;;;;;;;7.10;2.40;;;-1.10;99.90;;;;;;5026226;28;20408;-83
2022/01/21 01:07:04;;;;;;;7.32;2.40;;;-1.00;99.90;;;;;;5025203;28;20404;-84
2022/01/21 01:09:30;;;;;;;8.13;2.40;;;-1.10;99.90;;;;;;5024528;28;20459;-82
2022/01/21 01:20:06;;;;;;;5.28;2.17;;;-0.90;99.90;;;;;;5026802;28;20484;-84
2022/01/21 01:23:07;;;;;;;6.82;2.10;;;-0.90;99.90;;;;;;5025113;28;20397;-84
2022/01/21 01:28:17;;;;;;;6.03;2.28;;;-0.90;99.90;;;;;;5023827;28;20404;-86
2022/01/21 01:30:43;;;;;;;7.07;2.40;;;-0.80;99.90;;;;;;5025384;28;20882;-82
2022/01/21 01:33:11;;;;;;;9.20;2.53;;;-0.90;99.90;;;;;;5025988;28;20867;-86
2022/01/21 01:35:38;;;;;;;6.32;2.25;;;-0.90;99.90;;;;;;5024869;28;20389;-84
2022/01/21 01:40:53;;;;;;;5.93;2.40;;;-1.00;99.90;;;;;;5026320;28;20543;-84
2022/01/21 01:51:17;;;;;;;6.45;2.50;;;-1.10;99.90;;;;;;5025607;28;20775;-84
2022/01/21 01:53:48;;;;;;;7.38;2.92;;;-1.10;99.90;;;;;;5024989;28;20385;-84
2022/01/21 01:56:17;;;;;;;6.40;2.38;;;-1.20;99.90;;;;;;5024124;28;20400;-85
2022/01/21 01:58:43;;;;;;;9.23;2.20;;;-1.20;99.90;;;;;;5022700;28;20396;-84
2022/01/21 02:01:09;;;;;;;6.17;2.47;;;-1.40;99.90;;;;;;5024148;28;20466;-84
2022/01/21 02:03:36;;;;;;;8.18;2.30;;;-1.50;99.90;;;;;;5025163;28;20377;-85
2022/01/21 02:06:03;;;;;;;8.07;2.55;;;-1.50;99.90;;;;;;5025308;28;20404;-85
2022/01/21 02:08:29;;;;;;;7.43;2.50;;;-1.50;99.90;;;;;;5023949;28;20400;-84
2022/01/21 02:10:55;;;;;;;7.13;2.25;;;-1.60;99.90;;;;;;5024670;28;20384;-85
2022/01/21 02:13:25;;;;;;;7.45;2.35;;;-1.60;99.90;;;;;;5024809;28;20386;-84
2022/01/21 02:16:01;;;;;;;7.53;2.30;;;-1.60;99.90;;;;;;5025558;28;20393;-83
2022/01/21 02:23:54;;;;;;;9.30;2.33;;;-1.80;99.90;;;;;;5028669;28;20745;-83
2022/01/21 02:26:20;;;;;;;6.30;2.20;;;-1.90;99.90;;;;;;5026953;28;20405;-85
2022/01/21 02:28:46;;;;;;;5.13;2.25;;;-1.80;99.90;;;;;;5028220;28;20385;-85
2022/01/21 02:31:12;;;;;;;8.70;2.60;;;-1.80;99.90;;;;;;5027843;28;20970;-86
2022/01/21 02:33:38;;;;;;;5.43;2.25;;;-1.90;99.90;;;;;;5026534;28;20378;-84
2022/01/21 02:36:04;;;;;;;8.13;2.45;;;-1.90;99.90;;;;;;5026689;28;20397;-85
2022/01/21 02:38:29;;;;;;;7.68;2.47;;;-2.00;99.90;;;;;;5026454;28;20753;-84
2022/01/21 02:40:55;;;;;;;8.23;2.70;;;-2.00;99.90;;;;;;5027741;27;20381;-84
2022/01/21 02:43:21;;;;;;;9.15;2.60;;;-2.00;99.90;;;;;;5027083;28;20397;-84
2022/01/21 02:45:47;;;;;;;7.63;2.23;;;-2.00;99.90;;;;;;5027164;28;20505;-85
2022/01/21 02:48:13;;;;;;;6.80;2.53;;;-2.00;99.90;;;;;;5028052;28;20377;-85
2022/01/21 02:50:39;;;;;;;8.00;2.30;;;-2.00;99.90;;;;;;5028182;28;20713;-85
2022/01/21 02:53:23;;;;;;;7.15;2.40;;;-2.00;99.90;;;;;;5028102;28;20384;-85
2022/01/21 02:55:49;;;;;;;6.35;2.40;;;-2.10;99.90;;;;;;5025914;28;20406;-86
2022/01/21 02:58:14;;;;;;;6.38;2.67;;;-2.10;99.90;;;;;;5027178;28;20883;-85
2022/01/21 03:00:40;;;;;;;6.63;2.70;;;-2.10;99.90;;;;;;5026719;28;20369;-84
2022/01/21 03:03:06;;;;;;;7.50;2.30;;;-2.10;99.90;;;;;;5026067;28;21091;-84
2022/01/21 03:05:34;;;;;;;7.43;2.45;;;-2.10;99.90;;;;;;5027366;28;20415;-84
2022/01/21 03:08:01;;;;;;;6.53;2.30;;;-2.10;99.90;;;;;;5030901;28;20382;-85
2022/01/21 03:10:26;;;;;;;6.13;2.40;;;-2.10;99.90;;;;;;5026628;28;20402;-84
2022/01/21 03:12:54;;;;;;;9.55;3.03;;;-2.10;99.90;;;;;;5026562;28;20881;-84
2022/01/21 03:15:19;;;;;;;10.90;3.25;;;-2.10;99.90;;;;;;5008485;28;20395;-84
2022/01/21 03:17:45;;;;;;;8.63;2.73;;;-2.10;99.90;;;;;;5035937;28;20415;-84
2022/01/21 03:20:11;;;;;;;6.30;2.20;;;-2.10;99.90;;;;;;5041904;28;20417;-84
2022/01/21 03:22:37;;;;;;;6.70;2.60;;;-2.10;99.90;;;;;;5030746;28;20440;-85
2022/01/21 03:25:07;;;;;;;6.38;2.40;;;-2.20;99.90;;;;;;5026978;28;20421;-85
2022/01/21 03:27:33;;;;;;;8.48;2.70;;;-2.20;99.90;;;;;;5028483;28;20846;-84
2022/01/21 03:29:59;;;;;;;7.78;2.70;;;-2.20;99.90;;;;;;5032901;28;20407;-85
2022/01/21 03:32:25;;;;;;;5.80;2.37;;;-2.20;99.90;;;;;;5039674;28;20450;-84
2022/01/21 03:34:53;;;;;;;7.85;2.90;;;-2.20;99.90;;;;;;5034607;28;20393;-83
2022/01/21 03:37:18;;;;;;;9.52;2.90;;;-2.30;99.90;;;;;;5030844;28;20389;-85
2022/01/21 03:39:44;;;;;;;8.18;2.72;;;-2.40;99.90;;;;;;5028724;28;20771;-83
2022/01/21 03:42:10;;;;;;;5.97;2.42;;;-2.40;99.90;;;;;;5027532;28;20436;-84
2022/01/21 03:44:35;;;;;;;6.83;2.50;;;-2.40;99.90;;;;;;5027918;28;20378;-85
2022/01/21 03:47:01;;;;;;;6.93;2.40;;;-2.50;99.90;;;;;;5027779;28;20423;-84
2022/01/21 03:49:28;;;;;;;9.27;3.10;;;-2.50;99.90;;;;;;5027747;28;20369;-85
2022/01/21 03:51:54;;;;;;;8.07;2.60;;;-2.50;99.90;;;;;;5026888;28;20429;-85
2022/01/21 03:54:20;;;;;;;9.30;2.88;;;-2.40;99.90;;;;;;5026562;28;20816;-84
2022/01/21 03:56:45;;;;;;;8.38;2.40;;;-2.50;99.90;;;;;;5028348;28;20420;-83
2022/01/21 03:59:11;;;;;;;6.43;2.50;;;-2.30;99.90;;;;;;5027782;28;20741;-82
2022/01/21 04:01:37;;;;;;;7.43;2.70;;;-2.40;99.90;;;;;;5028622;28;20378;-84
2022/01/21 04:04:03;;;;;;;7.30;2.28;;;-2.40;99.90;;;;;;5027833;28;20713;-86
2022/01/21 04:06:28;;;;;;;7.90;2.92;;;-2.30;99.90;;;;;;5027818;28;20418;-83
2022/01/21 04:08:55;;;;;;;8.68;2.65;;;-2.30;99.90;;;;;;5026539;28;20386;-84
2022/01/21 04:11:21;;;;;;;7.60;2.80;;;-2.30;99.90;;;;;;5026843;28;20394;-84
2022/01/21 04:13:47;;;;;;;7.40;2.85;;;-2.40;99.90;;;;;;5025952;28;20378;-82
2022/01/21 04:16:12;;;;;;;6.75;2.92;;;-2.40;99.90;;;;;;5026250;28;20378;-84
2022/01/21 04:18:38;;;;;;;9.07;2.72;;;-2.50;99.90;;;;;;5026187;28;20393;-84
2022/01/21 04:21:03;;;;;;;8.48;2.92;;;-2.50;99.90;;;;;;5025433;28;20870;-84
2022/01/21 04:23:29;;;;;;;6.60;2.50;;;-2.50;99.90;;;;;;5026054;28;20389;-83
2022/01/21 04:25:55;;;;;;;8.40;2.95;;;-2.50;99.90;;;;;;5025586;28;20891;-85
2022/01/21 04:28:21;;;;;;;7.18;2.40;;;-2.60;99.90;;;;;;5025339;28;20390;-84
2022/01/21 04:30:47;;;;;;;8.50;2.53;;;-2.60;99.90;;;;;;5024977;28;20417;-84
2022/01/21 04:33:13;;;;;;;8.17;2.57;;;-2.60;99.90;;;;;;5025268;28;20914;-84
2022/01/21 04:35:40;;;;;;;8.23;3.00;;;-2.60;99.90;;;;;;5024574;28;20454;-84
2022/01/21 04:38:09;;;;;;;7.20;2.55;;;-2.60;99.90;;;;;;5025497;28;20397;-84
2022/01/21 04:40:44;;;;;;;6.55;2.53;;;-2.60;99.90;;;;;;5025191;28;20405;-84
2022/01/21 04:48:39;;;;;;;7.70;2.88;;;-2.70;99.90;;;;;;5026658;28;20430;-84
2022/01/21 04:51:15;;;;;;;7.82;2.40;;;-2.80;99.90;;;;;;5024945;28;20391;-83
2022/01/21 04:53:45;;;;;;;10.15;3.33;;;-2.80;99.90;;;;;;5024930;28;20397;-84
2022/01/21 04:56:13;;;;;;;7.40;2.88;;;-2.80;99.90;;;;;;5026139;28;20394;-85
2022/01/21 04:58:39;;;;;;;6.85;2.90;;;-2.90;99.90;;;;;;5024871;28;20374;-83
2022/01/21 05:01:06;;;;;;;7.82;2.88;;;-2.90;99.90;;;;;;5024950;28;20465;-84
2022/01/21 05:03:33;;;;;;;6.40;2.72;;;-2.90;99.90;;;;;;5024997;28;20389;-84
2022/01/21 05:06:00;;;;;;;6.65;2.83;;;-2.90;99.90;;;;;;5026465;28;20401;-83
2022/01/21 05:08:32;;;;;;;7.22;3.28;;;-2.80;99.90;;;;;;5025452;28;20875;-84
2022/01/21 05:10:58;;;;;;;5.85;2.55;;;-2.80;99.90;;;;;;5026243;28;20418;-84
2022/01/21 05:13:27;;;;;;;6.03;2.70;;;-2.80;99.90;;;;;;5025444;28;20389;-83
2022/01/21 05:16:10;;;;;;;7.60;2.80;;;-2.80;99.90;;;;;;5026150;28;20959;-81
2022/01/21 05:18:36;;;;;;;9.80;2.78;;;-2.70;99.90;;;;;;5026359;28;20386;-84
2022/01/21 05:21:02;;;;;;;10.27;3.05;;;-2.70;99.90;;;;;;5025911;28;20393;-83
2022/01/21 05:23:27;;;;;;;7.82;2.65;;;-2.70;99.90;;;;;;5025007;28;20527;-84
2022/01/21 05:25:53;;;;;;;7.63;2.90;;;-2.70;99.90;;;;;;5028251;28;20636;-84
2022/01/21 05:28:20;;;;;;;9.70;2.88;;;-2.70;99.90;;;;;;5030673;28;20406;-83
2022/01/21 05:30:45;;;;;;;7.88;2.90;;;-2.70;99.90;;;;;;5026006;28;20386;-83
2022/01/21 05:33:11;;;;;;;8.65;3.22;;;-2.70;99.90;;;;;;5024689;28;20473;-84
2022/01/21 05:35:36;;;;;;;12.05;3.55;;;-2.80;99.90;;;;;;5024101;28;20431;-84
2022/01/21 05:38:02;;;;;;;9.00;3.17;;;-2.80;99.90;;;;;;5024637;28;20476;-83
2022/01/21 05:40:28;;;;;;;7.13;2.77;;;-2.80;99.90;;;;;;5023973;28;20895;-83
2022/01/21 05:42:53;;;;;;;6.10;2.80;;;-2.80;99.90;;;;;;5024390;28;20400;-83
2022/01/21 05:48:03;;;;;;;7.53;2.50;;;-2.90;99.90;;;;;;5019602;28;20520;-83
2022/01/21 05:50:29;;;;;;;7.20;2.83;;;-2.90;99.90;;;;;;5023705;28;20394;-84
2022/01/21 05:52:56;;;;;;;8.43;3.28;;;-2.90;99.90;;;;;;5024573;28;20385;-84
2022/01/21 05:55:24;;;;;;;9.45;3.22;;;-2.90;99.90;;;;;;5025780;28;20963;-83
2022/01/21 05:57:50;;;;;;;9.57;2.90;;;-2.90;99.90;;;;;;5029466;28;20388;-84
2022/01/21 06:00:16;;;;;;;9.68;2.90;;;-2.90;99.90;;;;;;5027827;28;20472;-83
2022/01/21 06:02:42;;;;;;;7.00;3.05;;;-2.80;99.90;;;;;;5028877;28;20765;-83
2022/01/21 06:05:08;;;;;;;9.13;2.90;;;-2.80;99.90;;;;;;5028154;28;20389;-83
2022/01/21 06:07:34;;;;;;;9.37;2.97;;;-2.90;99.90;;;;;;5028275;28;20466;-83
2022/01/21 06:10:00;;;;;;;6.93;2.60;;;-3.00;99.90;;;;;;5027352;28;20804;-84
2022/01/21 06:12:25;;;;;;;11.13;3.05;;;-3.00;99.90;;;;;;5028446;28;20389;-84
2022/01/21 06:14:51;;;;;;;7.22;2.58;;;-2.90;99.90;;;;;;5027478;28;20395;-85
2022/01/21 06:17:17;;;;;;;9.57;2.47;;;-2.90;99.90;;;;;;5022335;28;20395;-84
2022/01/21 06:19:44;;;;;;;9.30;3.07;;;-3.00;99.90;;;;;;5026218;28;20434;-85
2022/01/21 06:22:10;;;;;;;10.73;2.97;;;-3.00;99.90;;;;;;5026708;28;20951;-84
2022/01/21 06:24:37;;;;;;;8.70;3.03;;;-2.90;99.90;;;;;;5026533;28;20401;-84
2022/01/21 06:27:04;;;;;;;8.45;2.95;;;-2.90;99.90;;;;;;5027760;28;20411;-84
2022/01/21 06:29:30;;;;;;;8.48;2.55;;;-2.80;99.90;;;;;;5027845;28;20390;-84
2022/01/21 06:31:55;;;;;;;8.90;2.90;;;-2.80;99.90;;;;;;5026819;28;20457;-84
2022/01/21 06:34:21;;;;;;;7.03;3.23;;;-2.90;99.90;;;;;;5028346;28;20389;-85
2022/01/21 06:36:47;;;;;;;9.83;3.23;;;-2.90;99.90;;;;;;5028157;28;20366;-84
2022/01/21 06:39:12;;;;;;;18.00;4.40;;;-2.90;99.90;;;;;;5026786;28;20434;-85
2022/01/21 06:41:38;;;;;;;9.60;3.20;;;-2.90;99.90;;;;;;5027399;28;20394;-84
2022/01/21 06:44:05;;;;;;;10.57;3.67;;;-2.90;99.90;;;;;;5026402;28;20496;-84
2022/01/21 06:46:30;;;;;;;13.00;4.43;;;-2.90;99.90;;;;;;5026604;28;20409;-85
2022/01/21 06:48:56;;;;;;;13.43;5.13;;;-3.00;99.90;;;;;;5028361;28;20600;-84
2022/01/21 06:51:22;;;;;;;12.90;4.45;;;-3.00;99.90;;;;;;5026612;28;20784;-84
2022/01/21 06:53:47;;;;;;;12.93;4.88;;;-3.10;99.90;;;;;;5028253;28;20370;-84
2022/01/21 06:56:13;;;;;;;10.82;4.90;;;-3.10;99.90;;;;;;5025906;28;20408;-85
2022/01/21 06:58:39;;;;;;;11.65;4.35;;;-3.20;99.90;;;;;;5028060;28;20422;-84
2022/01/21 07:01:05;;;;;;;10.70;4.70;;;-3.20;99.90;;;;;;5026562;28;20551;-84
2022/01/21 07:03:30;;;;;;;11.10;4.43;;;-3.20;99.90;;;;;;5026634;28;20393;-84
2022/01/21 07:05:56;;;;;;;12.80;3.97;;;-3.20;99.90;;;;;;5025803;28;20405;-86
2022/01/21 07:08:22;;;;;;;12.00;4.07;;;-3.20;99.90;;;;;;5027792;28;20773;-85
2022/01/21 07:10:48;;;;;;;11.23;4.07;;;-3.30;99.90;;;;;;5027182;28;20472;-84
2022/01/21 07:13:13;;;;;;;10.60;3.57;;;-3.20;99.90;;;;;;5027480;28;20497;-84
2022/01/21 07:15:39;;;;;;;12.47;3.53;;;-3.20;99.90;;;;;;5026189;28;20386;-84
2022/01/21 07:18:05;;;;;;;10.73;4.20;;;-3.20;99.90;;;;;;5025541;28;20535;-84
2022/01/21 07:20:31;;;;;;;11.10;5.00;;;-3.10;99.90;;;;;;5030726;28;20393;-83
2022/01/21 07:22:56;;;;;;;11.80;4.70;;;-3.10;99.90;;;;;;5038477;28;20374;-85
2022/01/21 07:25:22;;;;;;;14.90;4.57;;;-3.10;99.90;;;;;;5037884;28;20429;-84
2022/01/21 07:27:48;;;;;;;11.40;4.17;;;-3.20;99.90;;;;;;5028775;28;20434;-84
2022/01/21 07:30:14;;;;;;;8.80;3.97;;;-3.10;99.90;;;;;;5028028;28;20606;-84
2022/01/21 07:32:41;;;;;;;9.05;3.05;;;-3.00;99.90;;;;;;5025359;28;20481;-83
2022/01/21 07:35:09;;;;;;;12.10;3.43;;;-2.90;99.90;;;;;;5026895;28;20481;-83
2022/01/21 07:37:35;;;;;;;11.82;3.95;;;-2.90;99.90;;;;;;5031479;28;20773;-84
2022/01/21 07:40:01;;;;;;;13.98;4.05;;;-2.90;99.90;;;;;;5029018;28;20437;-83
2022/01/21 07:42:28;;;;;;;11.98;3.95;;;-2.90;99.90;;;;;;5027219;28;20413;-84
2022/01/21 07:44:55;;;;;;;15.07;4.30;;;-2.90;99.90;;;;;;5011816;28;20484;-84
2022/01/21 07:47:21;;;;;;;10.85;4.68;;;-2.80;99.90;;;;;;5028933;28;20468;-84
2022/01/21 07:49:48;;;;;;;12.25;4.43;;;-2.80;99.90;;;;;;5028745;28;20876;-84
2022/01/21 07:52:14;;;;;;;12.35;4.43;;;-2.80;99.90;;;;;;5026802;28;20451;-84
2022/01/21 07:54:41;;;;;;;12.20;4.03;;;-2.60;99.90;;;;;;5028387;28;20501;-82
2022/01/21 07:57:07;;;;;;;12.35;4.25;;;-2.60;99.90;;;;;;5025856;28;20398;-85
2022/01/21 07:59:32;;;;;;;13.18;4.18;;;-2.50;99.90;;;;;;5021797;28;20393;-84
2022/01/21 08:01:58;;;;;;;13.35;3.97;;;-2.50;99.90;;;;;;5025610;28;20397;-85
2022/01/21 08:04:24;;;;;;;12.85;4.10;;;-2.40;99.90;;;;;;5027174;28;21196;-84
2022/01/21 08:06:50;;;;;;;10.75;3.85;;;-2.40;99.90;;;;;;5009227;28;20423;-84
2022/01/21 08:09:16;;;;;;;12.10;3.73;;;-2.30;99.90;;;;;;5025339;28;20754;-82
2022/01/21 08:11:42;;;;;;;11.30;3.63;;;-2.20;99.90;;;;;;5025871;28;20427;-83
2022/01/21 08:14:08;;;;;;;12.32;3.90;;;-2.20;99.90;;;;;;5025327;28;20389;-83
2022/01/21 08:16:35;;;;;;;11.90;3.95;;;-2.10;99.90;;;;;;5027322;28;20382;-83
2022/01/21 08:19:03;;;;;;;13.63;4.43;;;-2.00;99.90;;;;;;5026032;28;20396;-83
2022/01/21 08:21:29;;;;;;;12.50;4.07;;;-2.00;99.90;;;;;;5026885;28;20412;-83
2022/01/21 08:23:55;;;;;;;12.00;3.70;;;-1.80;99.90;;;;;;5025784;28;20386;-83
2022/01/21 08:26:24;;;;;;;15.30;4.60;;;-1.90;99.90;;;;;;5025535;28;20412;-83
2022/01/21 08:28:51;;;;;;;15.07;4.53;;;-1.80;99.90;;;;;;5025392;28;20413;-83
2022/01/21 08:31:16;;;;;;;12.07;3.83;;;-1.70;99.90;;;;;;5026257;28;20556;-83
2022/01/21 08:33:42;;;;;;;14.60;4.17;;;-1.60;99.90;;;;;;5026480;28;20467;-83
2022/01/21 08:36:08;;;;;;;12.73;4.13;;;-1.50;99.90;;;;;;5025458;28;20470;-83
2022/01/21 08:38:34;;;;;;;10.40;4.17;;;-1.40;99.90;;;;;;5026088;28;20366;-82
2022/01/21 08:41:00;;;;;;;15.30;4.07;;;-1.30;99.90;;;;;;5024504;28;20412;-82
2022/01/21 08:43:26;;;;;;;14.97;3.83;;;-1.30;99.90;;;;;;5025123;28;20433;-82
2022/01/21 08:45:52;;;;;;;13.70;3.92;;;-1.10;99.90;;;;;;5026739;28;20437;-83
2022/01/21 08:48:18;;;;;;;12.00;4.15;;;-1.00;99.90;;;;;;5025540;28;20446;-83
2022/01/21 08:50:44;;;;;;;15.95;4.40;;;-0.80;99.90;;;;;;5024438;28;20389;-81
2022/01/21 08:53:36;;;;;;;12.88;3.95;;;-0.80;99.90;;;;;;5014975;28;20377;-82
2022/01/21 08:55:55;;;;;;;13.90;3.88;;;-0.60;99.90;;;;;;5026241;28;20406;-81
2022/01/21 08:58:21;;;;;;;14.70;3.75;;;-0.40;99.90;;;;;;5025139;28;20397;-82
2022/01/21 09:00:47;;;;;;;16.58;4.32;;;-0.30;99.90;;;;;;5024724;28;20743;-83
2022/01/21 09:03:12;;;;;;;15.37;4.37;;;-0.20;99.90;;;;;;5026604;28;20443;-83
2022/01/21 09:05:38;;;;;;;12.70;4.00;;;-0.10;99.90;;;;;;5026741;28;20398;-82
2022/01/21 09:08:04;;;;;;;15.93;4.00;;;0.10;99.90;;;;;;5026793;28;20396;-82
2022/01/21 09:10:30;;;;;;;13.20;4.07;;;0.20;99.90;;;;;;5025738;28;20378;-81
2022/01/21 09:12:55;;;;;;;12.32;3.92;;;0.30;99.90;;;;;;5008786;28;20496;-83
2022/01/21 09:15:25;;;;;;;14.18;3.80;;;0.40;99.90;;;;;;5025509;28;20382;-83
2022/01/21 09:17:52;;;;;;;10.70;3.63;;;0.50;99.90;;;;;;5025470;28;20393;-83
2022/01/21 09:20:17;;;;;;;15.77;3.93;;;0.60;99.90;;;;;;5024690;28;20386;-83
2022/01/21 09:22:43;;;;;;;12.47;3.73;;;0.70;99.90;;;;;;5025702;28;20397;-82
2022/01/21 09:25:09;;;;;;;13.73;4.03;;;0.60;99.90;;;;;;5025218;28;20875;-82
2022/01/21 09:27:35;;;;;;;11.85;3.95;;;0.70;99.90;;;;;;5025125;28;20405;-81
2022/01/21 09:30:02;;;;;;;14.57;4.45;;;0.70;99.90;;;;;;5024274;28;20763;-83
2022/01/21 09:32:28;;;;;;;10.88;3.80;;;0.80;99.90;;;;;;5023856;28;20385;-83
2022/01/21 09:34:53;;;;;;;12.90;3.67;;;0.80;99.90;;;;;;5024830;28;20386;-83
2022/01/21 09:37:19;;;;;;;12.68;3.70;;;0.90;99.90;;;;;;5026585;28;20879;-82
2022/01/21 09:39:45;;;;;;;13.07;3.92;;;0.90;99.90;;;;;;5025637;28;20389;-82
2022/01/21 09:42:14;;;;;;;14.27;4.07;;;0.80;99.90;;;;;;5025779;28;20736;-83
2022/01/21 09:44:40;;;;;;;14.18;3.63;;;0.80;99.90;;;;;;5024155;28;20401;-84
2022/01/21 09:47:06;;;;;;;13.27;3.88;;;1.00;99.90;;;;;;5025738;28;20405;-84
2022/01/21 09:49:34;;;;;;;10.98;3.65;;;1.00;99.90;;;;;;5024272;28;20785;-83
2022/01/21 09:52:04;;;;;;;14.48;4.03;;;0.90;99.90;;;;;;5024294;28;20409;-84
2022/01/21 09:54:33;;;;;;;13.35;3.80;;;0.90;99.90;;;;;;5023630;28;20402;-82
2022/01/21 09:57:02;;;;;;;13.80;3.95;;;1.10;99.90;;;;;;5012984;28;20820;-83
2022/01/21 09:59:31;;;;;;;13.80;3.70;;;1.20;99.90;;;;;;5008152;28;20732;-84
2022/01/21 10:02:00;;;;;;;9.57;3.78;;;1.20;99.90;;;;;;5025438;28;20381;-83
2022/01/21 10:04:27;;;;;;;10.53;3.23;;;1.30;99.90;;;;;;5024063;28;20489;-84
2022/01/21 10:06:55;;;;;;;13.97;3.73;;;1.50;99.90;;;;;;5007835;28;20409;-82
2022/01/21 10:09:22;;;;;;;15.23;4.38;;;1.60;99.90;;;;;;5026411;28;20385;-83
2022/01/21 10:11:49;;;;;;;9.82;3.88;;;1.80;99.90;;;;;;5032544;28;20402;-83
2022/01/21 10:14:26;;;;;;;11.50;3.97;;;1.90;99.90;;;;;;5026160;28;20390;-83
2022/01/21 10:16:53;;;;;;;13.93;4.57;;;1.80;99.90;;;;;;5025549;28;20446;-84
2022/01/21 10:19:24;;;;;;;11.18;3.78;;;1.90;99.90;;;;;;5024409;28;20419;-83
2022/01/21 10:22:05;;;;;;;10.13;3.60;;;1.70;99.90;;;;;;5023698;28;20390;-83
2022/01/21 10:24:35;;;;;;;14.95;3.70;;;1.60;99.90;;;;;;5023635;28;20493;-85
2022/01/21 10:27:02;;;;;;;11.15;3.78;;;1.50;99.90;;;;;;5025586;28;20470;-84
2022/01/21 10:29:38;;;;;;;11.75;3.50;;;1.40;99.90;;;;;;5024641;28;20416;-83
2022/01/21 10:32:06;;;;;;;12.20;3.88;;;1.40;99.90;;;;;;5024898;28;20416;-83
2022/01/21 10:34:40;;;;;;;14.35;4.18;;;1.40;99.90;;;;;;5023642;28;20396;-84
2022/01/21 10:37:31;;;;;;;13.85;3.65;;;1.40;99.90;;;;;;5025401;28;20457;-83
2022/01/21 10:40:09;;;;;;;10.80;3.58;;;1.50;99.90;;;;;;5023842;28;20406;-84
2022/01/21 10:42:35;;;;;;;11.52;3.63;;;1.70;99.90;;;;;;5026033;28;20782;-82
2022/01/21 10:45:03;;;;;;;14.63;4.10;;;1.90;99.90;;;;;;5027617;28;20450;-83
2022/01/21 10:47:36;;;;;;;12.02;3.80;;;1.90;99.90;;;;;;5027805;28;20398;-84
2022/01/21 10:50:17;;;;;;;13.45;4.47;;;1.90;99.90;;;;;;5029190;28;20378;-82
2022/01/21 10:52:51;;;;;;;11.88;3.95;;;2.00;99.90;;;;;;5008001;28;20400;-83
2022/01/21 10:55:34;;;;;;;10.98;3.40;;;2.00;99.90;;;;;;5028227;28;20407;-82
2022/01/21 10:58:14;;;;;;;10.93;3.70;;;2.00;99.90;;;;;;5027939;28;20382;-82
2022/01/21 11:00:59;;;;;;;11.35;3.85;;;2.00;99.90;;;;;;5027344;28;20763;-83
2022/01/21 11:03:29;;;;;;;12.25;3.60;;;2.20;99.90;;;;;;5019378;28;20890;-82
2022/01/21 11:06:21;;;;;;;11.17;3.67;;;2.20;99.90;;;;;;5027448;28;20409;-83
2022/01/21 11:08:47;;;;;;;10.32;3.72;;;2.30;99.90;;;;;;5026233;28;20396;-84
2022/01/21 11:11:12;;;;;;;12.10;4.00;;;2.30;99.90;;;;;;5026839;28;20382;-82
2022/01/21 11:13:40;;;;;;;11.85;3.72;;;2.30;99.90;;;;;;5026053;28;20394;-82
2022/01/21 11:16:13;;;;;;;11.88;3.50;;;2.30;99.90;;;;;;5028431;28;20417;-83
2022/01/21 11:19:11;;;;;;;8.17;3.00;;;2.30;99.90;;;;;;5029193;28;20828;-83
2022/01/21 11:21:56;;;;;;;11.25;3.25;;;2.60;99.90;;;;;;5043745;28;20405;-81
2022/01/21 11:24:24;;;;;;;8.65;3.38;;;2.50;99.90;;;;;;5030483;28;20390;-82
2022/01/21 11:27:12;;;;;;;10.70;3.03;;;2.60;99.90;;;;;;5027049;28;20413;-83
2022/01/21 11:29:38;;;;;;;15.23;2.58;;;2.30;99.90;;;;;;5030504;28;20393;-82
2022/01/21 11:32:05;;;;;;;9.02;3.20;;;2.90;99.90;;;;;;5038438;28;20377;-84
2022/01/21 11:34:32;;;;;;;11.75;3.47;;;2.80;99.90;;;;;;5029853;28;20378;-82
2022/01/21 11:36:58;;;;;;;6.67;2.63;;;2.80;99.90;;;;;;5029164;28;20370;-83
2022/01/21 11:39:24;;;;;;;11.50;3.42;;;2.80;99.90;;;;;;5027778;28;20382;-84
2022/01/21 11:41:53;;;;;;;7.57;2.90;;;2.80;99.90;;;;;;5028324;28;20385;-83
2022/01/21 11:44:20;;;;;;;8.45;2.78;;;2.90;99.90;;;;;;5028917;28;20397;-82
2022/01/21 11:49:58;;;;;;;8.38;2.97;;;2.80;99.90;;;;;;4994215;28;20397;-85
2022/01/21 11:52:25;;;;;;;9.32;3.15;;;2.70;99.90;;;;;;5027797;28;20449;-84
2022/01/21 11:54:52;;;;;;;10.90;3.05;;;2.80;99.90;;;;;;5026712;28;20377;-83
2022/01/21 11:57:29;;;;;;;7.75;2.78;;;2.80;99.90;;;;;;5026914;28;20382;-83
2022/01/21 12:00:03;;;;;;;10.17;3.33;;;2.80;99.90;;;;;;5027916;28;20511;-83
2022/01/21 12:02:31;;;;;;;8.07;3.33;;;2.70;99.90;;;;;;5026580;28;20466;-83
2022/01/21 12:05:01;;;;;;;8.90;3.05;;;2.70;99.90;;;;;;5026074;28;20401;-83
2022/01/21 12:07:44;;;;;;;8.98;3.35;;;2.70;99.90;;;;;;5027395;28;20437;-81
2022/01/21 12:10:18;;;;;;;7.55;2.95;;;2.60;99.90;;;;;;5025230;28;20400;-84
2022/01/21 12:12:59;;;;;;;10.30;3.53;;;2.70;99.90;;;;;;5014284;28;20383;-83
2022/01/21 12:15:29;;;;;;;9.90;3.05;;;2.70;99.90;;;;;;5007956;28;20418;-83
2022/01/21 12:18:44;;;;;;;10.35;3.13;;;2.60;99.90;;;;;;5009162;28;20396;-82
2022/01/21 12:21:28;;;;;;;7.53;2.85;;;2.60;99.90;;;;;;5006411;28;20404;-85
2022/01/21 12:23:54;;;;;;;10.85;3.83;;;2.70;99.90;;;;;;5005637;28;21126;-82
2022/01/21 12:26:24;;;;;;;10.35;3.10;;;2.60;99.90;;;;;;5005262;28;20443;-84
2022/01/21 12:28:53;;;;;;;10.73;3.20;;;2.70;99.90;;;;;;4988677;28;20896;-83
2022/01/21 12:31:21;;;;;;;10.07;2.92;;;2.80;99.90;;;;;;5007924;28;20411;-84
2022/01/21 12:36:35;;;;;;;9.73;3.17;;;2.80;99.90;;;;;;5008298;28;20415;-83
2022/01/21 12:41:32;;;;;;;11.20;3.03;;;2.80;99.90;;;;;;5008538;28;20387;-84
2022/01/21 12:44:05;;;;;;;8.95;2.65;;;2.90;99.90;;;;;;5007316;28;20475;-83
2022/01/21 12:46:47;;;;;;;6.73;2.40;;;3.00;99.90;;;;;;5006395;28;20407;-86
2022/01/21 12:49:44;;;;;;;7.93;2.40;;;2.90;99.90;;;;;;5014000;28;20893;-83
2022/01/21 12:52:13;;;;;;;7.63;2.77;;;3.00;99.90;;;;;;5026544;28;20415;-83
2022/01/21 12:57:32;;;;;;;7.00;2.30;;;3.00;99.90;;;;;;5028903;28;20399;-83
2022/01/21 13:00:00;;;;;;;6.97;2.63;;;3.00;99.90;;;;;;5026810;27;20473;-84
2022/01/21 13:02:28;;;;;;;8.17;2.97;;;2.90;99.90;;;;;;5026383;28;20914;-84
2022/01/21 13:05:15;;;;;;;8.25;2.65;;;3.10;99.90;;;;;;5023990;28;20402;-85
2022/01/21 13:08:00;;;;;;;9.35;3.17;;;3.00;99.90;;;;;;5026566;28;20892;-83
2022/01/21 13:10:28;;;;;;;9.60;2.90;;;3.00;99.90;;;;;;5025321;28;20414;-83
2022/01/21 13:15:40;;;;;;;8.48;2.78;;;3.10;99.90;;;;;;5026929;28;20397;-83
2022/01/21 13:18:11;;;;;;;7.57;2.50;;;3.10;99.90;;;;;;5026581;28;20390;-85
2022/01/21 13:20:41;;;;;;;5.40;2.45;;;3.10;99.90;;;;;;5026949;28;20394;-84
2022/01/21 13:23:07;;;;;;;8.95;3.20;;;3.10;99.90;;;;;;5026651;28;20747;-84
2022/01/21 13:25:33;;;;;;;9.75;3.53;;;3.10;99.90;;;;;;5026253;28;20406;-86
2022/01/21 13:28:02;;;;;;;7.38;3.00;;;3.00;99.90;;;;;;5026389;28;20875;-84
2022/01/21 13:30:32;;;;;;;5.17;2.43;;;3.10;99.90;;;;;;5027958;28;20899;-84
2022/01/21 13:33:05;;;;;;;4.22;2.20;;;3.00;99.90;;;;;;5006584;28;20410;-84
2022/01/21 13:35:32;;;;;;;7.35;2.53;;;3.00;99.90;;;;;;5017812;28;20446;-84
2022/01/21 13:38:05;;;;;;;8.05;2.30;;;3.10;99.90;;;;;;5025469;28;20405;-83
2022/01/21 13:40:37;;;;;;;8.25;2.65;;;3.10;99.90;;;;;;5026735;28;20473;-83
2022/01/21 13:43:12;;;;;;;5.70;2.38;;;3.10;99.90;;;;;;5023837;28;20417;-83
2022/01/21 13:45:40;;;;;;;5.47;2.10;;;3.00;99.90;;;;;;5027423;28;20480;-83
2022/01/21 13:48:08;;;;;;;8.00;2.28;;;2.90;99.90;;;;;;5029942;28;20398;-82
2022/01/21 13:50:34;;;;;;;5.20;1.80;;;2.90;99.90;;;;;;5029261;28;20395;-83
2022/01/21 13:53:04;;;;;;;6.10;1.95;;;2.90;99.90;;;;;;5028149;28;20390;-82
2022/01/21 13:55:43;;;;;;;5.70;2.10;;;2.90;99.90;;;;;;5030207;28;20403;-83